CheckWX is a tool to help pilots better visualize weather data.  It is not intended as a substitute for an official pre-flight weather briefing.

14:40:44 UTC

KPSP TAF
Palm Springs International Airport
Palm Springs, California, USA
KPSP 221123Z 2212/2312 VRB05KT P6SM SKC

Oct-22@
12:00 UTC

Oct-22 @ 12:00 UTC

Oct-23@
12:00 UTC

Oct-23 @ 12:00 UTC

KPSP 221123Z 2212/2312 VRB05KT P6SM SKC
Wind
  • Variable at 5 KTS
Cloud Levels
  • Clear skies